Time;durP1;ratioP1;P1;durP2;ratioP2;P2;SDS_P1;SDS_P2;PMS_P1;PMS_P2;Temp;Humidity;BMP_temperature;BMP_pressure;BME280_temperature;BME280_humidity;BME280_pressure;Samples;Min_cycle;Max_cycle;Signal;HPM_P1;HPM_P2
2022/10/24 00:00:10;;;;;;;;;;;;;;;;;;5099903;27;20373;-66
2022/10/24 00:02:36;;;;;;;;;;;;;;;;;;5097214;28;20007;-66
2022/10/24 00:05:01;;;;;;;;;;;;;;;;;;5098561;28;19920;-65
2022/10/24 00:07:26;;;;;;;;;;;;;;;;;;5105042;27;19965;-65
2022/10/24 00:09:51;;;;;;;;;;;;;;;;;;5069647;28;19958;-65
2022/10/24 00:12:16;;;;;;;;;;;;;;;;;;5102332;28;20289;-65
2022/10/24 00:14:41;;;;;;;;;;;;;;;;;;5067962;28;19913;-66
2022/10/24 00:17:06;;;;;;;;;;;;;;;;;;5064490;28;19913;-65
2022/10/24 00:19:31;;;;;;;;;;;;;;;;;;5099152;28;20356;-65
2022/10/24 00:21:57;;;;;;;;;;;;;;;;;;5066201;28;19916;-66
2022/10/24 00:24:24;;;;;;;;;;;;;;;;;;5097609;28;19955;-65
2022/10/24 00:26:49;;;;;;;;;;;;;;;;;;5072545;28;19912;-64
2022/10/24 00:29:14;;;;;;;;;;;;;;;;;;5070421;28;19919;-65
2022/10/24 00:31:39;;;;;;;;;;;;;;;;;;5066518;28;20372;-65
2022/10/24 00:34:04;;;;;;;;;;;;;;;;;;5071076;28;20358;-66
2022/10/24 00:36:29;;;;;;;;;;;;;;;;;;5070471;28;19912;-65
2022/10/24 00:38:54;;;;;;;;;;;;;;;;;;5065598;28;20007;-65
2022/10/24 00:41:19;;;;;;;;;;;;;;;;;;5103328;28;20356;-65
2022/10/24 00:43:45;;;;;;;;;;;;;;;;;;5102508;28;20357;-65
2022/10/24 00:46:10;;;;;;;;;;;;;;;;;;5099495;28;20292;-65
2022/10/24 00:48:35;;;;;;;;;;;;;;;;;;5105009;28;19913;-65
2022/10/24 00:51:00;;;;;;;;;;;;;;;;;;5098905;27;19920;-65
2022/10/24 00:53:25;;;;;;;;;;;;;;;;;;5071066;28;19916;-65
2022/10/24 00:55:50;;;;;;;;;;;;;;;;;;5094630;28;19908;-65
2022/10/24 00:58:15;;;;;;;;;;;;;;;;;;5072398;28;19922;-66
2022/10/24 01:00:41;;;;;;;;;;;;;;;;;;5070984;28;19958;-66
2022/10/24 01:03:06;;;;;;;;;;;;;;;;;;5065868;28;20333;-66
2022/10/24 01:05:31;;;;;;;;;;;;;;;;;;5078463;28;20455;-66
2022/10/24 01:07:56;;;;;;;;;;;;;;;;;;5067983;28;20280;-65
2022/10/24 01:10:21;;;;;;;;;;;;;;;;;;5104112;27;20243;-66
2022/10/24 01:12:46;;;;;;;;;;;;;;;;;;5072082;28;19912;-65
2022/10/24 01:15:11;;;;;;;;;;;;;;;;;;5068888;28;19987;-65
2022/10/24 01:17:37;;;;;;;;;;;;;;;;;;5069215;28;19962;-65
2022/10/24 01:20:02;;;;;;;;;;;;;;;;;;5069626;28;20376;-65
2022/10/24 01:22:27;;;;;;;;;;;;;;;;;;5069735;28;19997;-65
2022/10/24 01:24:52;;;;;;;;;;;;;;;;;;5068549;28;19944;-65
2022/10/24 01:27:17;;;;;;;;;;;;;;;;;;5067074;28;19920;-66
2022/10/24 01:29:42;;;;;;;;;;;;;;;;;;5070494;28;19940;-65
2022/10/24 01:32:07;;;;;;;;;;;;;;;;;;5063761;28;19913;-65
2022/10/24 01:34:32;;;;;;;;;;;;;;;;;;5102784;28;20381;-65
2022/10/24 01:36:58;;;;;;;;;;;;;;;;;;5066292;28;20011;-65
2022/10/24 01:39:23;;;;;;;;;;;;;;;;;;5063481;28;19972;-65
2022/10/24 01:41:48;;;;;;;;;;;;;;;;;;5063403;28;19921;-66
2022/10/24 01:44:13;;;;;;;;;;;;;;;;;;5068807;28;19916;-65
2022/10/24 01:46:38;;;;;;;;;;;;;;;;;;5062117;28;19962;-65
2022/10/24 01:49:03;;;;;;;;;;;;;;;;;;5070259;28;19919;-65
2022/10/24 01:51:28;;;;;;;;;;;;;;;;;;5065984;28;19926;-65
2022/10/24 01:53:54;;;;;;;;;;;;;;;;;;5063916;28;19943;-65
2022/10/24 01:56:19;;;;;;;;;;;;;;;;;;5064549;28;20904;-65
2022/10/24 01:58:44;;;;;;;;;;;;;;;;;;5070933;28;20011;-65
2022/10/24 02:01:09;;;;;;;;;;;;;;;;;;5070556;28;20365;-65
2022/10/24 02:03:34;;;;;;;;;;;;;;;;;;5068029;28;19913;-65
2022/10/24 02:06:00;;;;;;;;;;;;;;;;;;5095660;28;19912;-66
2022/10/24 02:08:25;;;;;;;;;;;;;;;;;;5069996;28;19912;-66
2022/10/24 02:10:50;;;;;;;;;;;;;;;;;;5063810;28;20360;-66
2022/10/24 02:13:15;;;;;;;;;;;;;;;;;;5060714;28;19948;-66
2022/10/24 02:15:41;;;;;;;;;;;;;;;;;;5100334;28;19912;-65
2022/10/24 02:18:06;;;;;;;;;;;;;;;;;;5062108;28;19940;-65
2022/10/24 02:20:31;;;;;;;;;;;;;;;;;;5062809;28;19970;-65
2022/10/24 02:22:56;;;;;;;;;;;;;;;;;;5073908;28;19920;-65
2022/10/24 02:25:21;;;;;;;;;;;;;;;;;;5103202;28;20057;-66
2022/10/24 02:27:46;;;;;;;;;;;;;;;;;;5069182;28;19917;-65
2022/10/24 02:30:11;;;;;;;;;;;;;;;;;;5068607;28;20011;-65
2022/10/24 02:32:37;;;;;;;;;;;;;;;;;;5103207;28;20426;-65
2022/10/24 02:35:02;;;;;;;;;;;;;;;;;;5063237;28;19919;-65
2022/10/24 02:37:27;;;;;;;;;;;;;;;;;;5072131;28;19913;-65
2022/10/24 02:39:52;;;;;;;;;;;;;;;;;;5069734;28;19920;-65
2022/10/24 02:42:17;;;;;;;;;;;;;;;;;;5071266;28;20189;-65
2022/10/24 02:44:42;;;;;;;;;;;;;;;;;;5066061;28;19924;-65
2022/10/24 02:47:08;;;;;;;;;;;;;;;;;;5101776;28;20037;-65
2022/10/24 02:49:33;;;;;;;;;;;;;;;;;;5067703;28;19913;-64
2022/10/24 02:51:58;;;;;;;;;;;;;;;;;;5062739;28;20218;-66
2022/10/24 02:54:23;;;;;;;;;;;;;;;;;;5069230;28;19920;-65
2022/10/24 02:56:48;;;;;;;;;;;;;;;;;;5097567;28;19917;-65
2022/10/24 02:59:13;;;;;;;;;;;;;;;;;;5101513;28;19916;-65
2022/10/24 03:01:38;;;;;;;;;;;;;;;;;;5070436;28;19921;-66
2022/10/24 03:04:03;;;;;;;;;;;;;;;;;;5107442;28;20009;-66
2022/10/24 03:06:28;;;;;;;;;;;;;;;;;;5073877;28;19938;-66
2022/10/24 03:08:54;;;;;;;;;;;;;;;;;;5069232;28;19916;-65
2022/10/24 03:11:19;;;;;;;;;;;;;;;;;;5078093;28;19926;-65
2022/10/24 03:13:44;;;;;;;;;;;;;;;;;;5094989;28;19909;-66
2022/10/24 03:16:09;;;;;;;;;;;;;;;;;;5089575;28;19920;-65
2022/10/24 03:18:34;;;;;;;;;;;;;;;;;;5073807;28;19916;-66
2022/10/24 03:20:59;;;;;;;;;;;;;;;;;;5070394;28;19912;-65
2022/10/24 03:23:27;;;;;;;;;;;;;;;;;;5074631;28;19921;-66
2022/10/24 03:25:52;;;;;;;;;;;;;;;;;;5079092;28;19912;-66
2022/10/24 03:28:17;;;;;;;;;;;;;;;;;;5064339;28;20373;-65
2022/10/24 03:30:42;;;;;;;;;;;;;;;;;;5100130;28;19912;-65
2022/10/24 03:33:08;;;;;;;;;;;;;;;;;;5073190;28;19919;-65
2022/10/24 03:35:33;;;;;;;;;;;;;;;;;;5070112;28;19918;-66
2022/10/24 03:37:58;;;;;;;;;;;;;;;;;;5106175;28;20015;-65
2022/10/24 03:40:23;;;;;;;;;;;;;;;;;;5065567;28;19919;-66
2022/10/24 03:42:48;;;;;;;;;;;;;;;;;;5065226;28;19920;-65
2022/10/24 03:45:14;;;;;;;;;;;;;;;;;;5073603;28;20392;-65
2022/10/24 03:47:39;;;;;;;;;;;;;;;;;;5064606;28;19910;-66
2022/10/24 03:50:04;;;;;;;;;;;;;;;;;;5064826;28;19920;-66
2022/10/24 03:52:29;;;;;;;;;;;;;;;;;;5066778;28;19951;-66
2022/10/24 03:54:55;;;;;;;;;;;;;;;;;;5071928;28;19919;-66
2022/10/24 03:57:20;;;;;;;;;;;;;;;;;;5072440;28;19921;-65
2022/10/24 03:59:45;;;;;;;;;;;;;;;;;;5074600;28;20025;-65
2022/10/24 04:02:12;;;;;;;;;;;;;;;;;;5070605;28;19913;-65
2022/10/24 04:04:37;;;;;;;;;;;;;;;;;;5082181;28;20346;-65
2022/10/24 04:07:04;;;;;;;;;;;;;;;;;;5073000;28;20016;-65
2022/10/24 04:09:29;;;;;;;;;;;;;;;;;;5072614;28;19913;-65
2022/10/24 04:11:54;;;;;;;;;;;;;;;;;;5071593;28;19919;-65
2022/10/24 04:14:19;;;;;;;;;;;;;;;;;;5069459;28;20348;-65
2022/10/24 04:16:45;;;;;;;;;;;;;;;;;;5071937;28;19916;-65
2022/10/24 04:19:10;;;;;;;;;;;;;;;;;;5072788;28;20380;-65
2022/10/24 04:21:35;;;;;;;;;;;;;;;;;;5075802;28;19928;-65
2022/10/24 04:24:00;;;;;;;;;;;;;;;;;;5073858;28;19919;-66
2022/10/24 04:26:25;;;;;;;;;;;;;;;;;;5099853;28;20285;-65
2022/10/24 04:28:50;;;;;;;;;;;;;;;;;;5101103;28;20357;-66
2022/10/24 04:31:16;;;;;;;;;;;;;;;;;;5070415;28;19923;-66
2022/10/24 04:33:41;;;;;;;;;;;;;;;;;;5095539;28;20010;-65
2022/10/24 04:36:06;;;;;;;;;;;;;;;;;;5069017;28;19916;-65
2022/10/24 04:38:31;;;;;;;;;;;;;;;;;;5063791;28;19927;-66
2022/10/24 04:40:56;;;;;;;;;;;;;;;;;;5098482;28;19961;-66
2022/10/24 04:43:21;;;;;;;;;;;;;;;;;;5067232;28;19966;-66
2022/10/24 04:45:46;;;;;;;;;;;;;;;;;;5098786;28;19923;-66
2022/10/24 04:48:12;;;;;;;;;;;;;;;;;;5098525;28;20411;-66
2022/10/24 04:50:37;;;;;;;;;;;;;;;;;;5100874;27;20396;-66
2022/10/24 04:53:02;;;;;;;;;;;;;;;;;;5071138;28;19912;-65
2022/10/24 04:55:27;;;;;;;;;;;;;;;;;;5066927;28;20574;-66
2022/10/24 04:57:52;;;;;;;;;;;;;;;;;;5072158;28;19934;-66
2022/10/24 05:00:17;;;;;;;;;;;;;;;;;;5070568;28;19955;-66
2022/10/24 05:02:42;;;;;;;;;;;;;;;;;;5063429;28;20376;-66
2022/10/24 05:05:07;;;;;;;;;;;;;;;;;;5061222;28;19966;-66
2022/10/24 05:07:33;;;;;;;;;;;;;;;;;;5070755;28;19913;-66
2022/10/24 05:09:58;;;;;;;;;;;;;;;;;;5070276;28;20019;-65
2022/10/24 05:12:23;;;;;;;;;;;;;;;;;;5070421;28;19966;-65
2022/10/24 05:14:48;;;;;;;;;;;;;;;;;;5070714;28;20296;-66
2022/10/24 05:17:13;;;;;;;;;;;;;;;;;;5071005;28;20003;-66
2022/10/24 05:19:38;;;;;;;;;;;;;;;;;;5071785;28;19962;-66
2022/10/24 05:22:03;;;;;;;;;;;;;;;;;;5068107;28;19916;-66
2022/10/24 05:24:29;;;;;;;;;;;;;;;;;;5071274;28;19912;-67
2022/10/24 05:26:54;;;;;;;;;;;;;;;;;;5065025;28;20011;-65
2022/10/24 05:29:19;;;;;;;;;;;;;;;;;;5082231;28;19916;-66
2022/10/24 05:31:44;;;;;;;;;;;;;;;;;;5074018;28;19924;-66
2022/10/24 05:34:09;;;;;;;;;;;;;;;;;;5068380;28;19963;-66
2022/10/24 05:36:34;;;;;;;;;;;;;;;;;;5104247;28;19919;-65
2022/10/24 05:38:59;;;;;;;;;;;;;;;;;;5099882;28;19924;-65
2022/10/24 05:41:25;;;;;;;;;;;;;;;;;;5102412;28;19916;-65
2022/10/24 05:43:50;;;;;;;;;;;;;;;;;;5096190;28;19912;-65
2022/10/24 05:46:15;;;;;;;;;;;;;;;;;;5071231;28;20054;-65
2022/10/24 05:48:40;;;;;;;;;;;;;;;;;;5070660;28;19962;-65
2022/10/24 05:51:05;;;;;;;;;;;;;;;;;;5095058;28;19921;-66
2022/10/24 05:53:30;;;;;;;;;;;;;;;;;;5101021;28;19912;-66
2022/10/24 05:55:55;;;;;;;;;;;;;;;;;;5067664;28;19920;-66
2022/10/24 05:58:21;;;;;;;;;;;;;;;;;;5069249;28;19917;-66
2022/10/24 06:00:46;;;;;;;;;;;;;;;;;;5066108;28;19979;-66
2022/10/24 06:03:11;;;;;;;;;;;;;;;;;;5064646;28;19963;-68
2022/10/24 06:05:36;;;;;;;;;;;;;;;;;;5069956;28;19962;-66
2022/10/24 06:08:01;;;;;;;;;;;;;;;;;;5070056;28;19913;-66
2022/10/24 06:10:27;;;;;;;;;;;;;;;;;;5067142;28;19921;-64
2022/10/24 06:12:52;;;;;;;;;;;;;;;;;;5064874;28;20288;-66
2022/10/24 06:15:17;;;;;;;;;;;;;;;;;;5067330;28;19917;-66
2022/10/24 06:17:42;;;;;;;;;;;;;;;;;;5072481;28;19911;-65
2022/10/24 06:20:07;;;;;;;;;;;;;;;;;;5066926;28;19963;-65
2022/10/24 06:22:32;;;;;;;;;;;;;;;;;;5063748;28;19917;-66
2022/10/24 06:24:58;;;;;;;;;;;;;;;;;;5059761;28;19939;-66
2022/10/24 06:27:24;;;;;;;;;;;;;;;;;;5053648;28;19908;-65
2022/10/24 06:29:49;;;;;;;;;;;;;;;;;;5052409;28;19958;-65
2022/10/24 06:32:14;;;;;;;;;;;;;;;;;;5061954;28;19909;-66
2022/10/24 06:34:39;;;;;;;;;;;;;;;;;;5071996;28;19913;-66
2022/10/24 06:37:04;;;;;;;;;;;;;;;;;;5067332;28;19995;-66
2022/10/24 06:39:29;;;;;;;;;;;;;;;;;;5096960;28;19920;-66
2022/10/24 06:41:54;;;;;;;;;;;;;;;;;;5064453;28;19912;-66
2022/10/24 06:44:20;;;;;;;;;;;;;;;;;;5100877;28;19916;-66
2022/10/24 06:46:45;;;;;;;;;;;;;;;;;;5070056;28;19912;-66
2022/10/24 06:49:10;;;;;;;;;;;;;;;;;;5062019;28;19974;-66
2022/10/24 06:51:35;;;;;;;;;;;;;;;;;;5062296;28;19970;-66
2022/10/24 06:54:01;;;;;;;;;;;;;;;;;;5064439;28;20428;-65
2022/10/24 06:56:26;;;;;;;;;;;;;;;;;;5063801;28;19913;-66
2022/10/24 06:58:51;;;;;;;;;;;;;;;;;;5065200;28;19923;-66
2022/10/24 07:01:16;;;;;;;;;;;;;;;;;;5059394;28;19955;-65
2022/10/24 07:03:41;;;;;;;;;;;;;;;;;;5097026;28;20380;-65
2022/10/24 07:06:06;;;;;;;;;;;;;;;;;;5061654;28;20292;-65
2022/10/24 07:08:32;;;;;;;;;;;;;;;;;;5060438;28;19917;-65
2022/10/24 07:10:57;;;;;;;;;;;;;;;;;;5082472;28;19912;-65
2022/10/24 07:13:22;;;;;;;;;;;;;;;;;;5102857;28;19912;-67
2022/10/24 07:15:47;;;;;;;;;;;;;;;;;;5093735;28;20365;-66
2022/10/24 07:18:13;;;;;;;;;;;;;;;;;;5068427;28;19923;-65
2022/10/24 07:20:38;;;;;;;;;;;;;;;;;;5059367;28;20361;-66
2022/10/24 07:23:03;;;;;;;;;;;;;;;;;;5066066;28;19916;-66
2022/10/24 07:25:28;;;;;;;;;;;;;;;;;;5066897;28;20001;-66
2022/10/24 07:27:55;;;;;;;;;;;;;;;;;;5101281;28;20459;-66
2022/10/24 07:30:20;;;;;;;;;;;;;;;;;;5065621;28;19919;-65
2022/10/24 07:32:46;;;;;;;;;;;;;;;;;;5059460;28;19915;-65
2022/10/24 07:35:11;;;;;;;;;;;;;;;;;;5056145;28;19925;-65
2022/10/24 07:37:36;;;;;;;;;;;;;;;;;;5063112;28;19978;-66
2022/10/24 07:40:01;;;;;;;;;;;;;;;;;;5058740;28;19962;-66
2022/10/24 07:42:27;;;;;;;;;;;;;;;;;;5070546;28;19913;-66
2022/10/24 07:44:52;;;;;;;;;;;;;;;;;;5092650;28;19987;-66
2022/10/24 07:47:17;;;;;;;;;;;;;;;;;;5069626;28;19912;-65
2022/10/24 07:49:42;;;;;;;;;;;;;;;;;;5075064;28;19917;-66
2022/10/24 07:52:07;;;;;;;;;;;;;;;;;;5101139;27;19939;-66
2022/10/24 07:54:33;;;;;;;;;;;;;;;;;;5070730;28;19913;-65
2022/10/24 07:56:58;;;;;;;;;;;;;;;;;;5070219;28;20427;-65
2022/10/24 07:59:23;;;;;;;;;;;;;;;;;;5073405;28;19917;-65
2022/10/24 08:01:48;;;;;;;;;;;;;;;;;;5100259;28;19912;-66
2022/10/24 08:04:13;;;;;;;;;;;;;;;;;;5066822;28;19919;-66
2022/10/24 08:06:39;;;;;;;;;;;;;;;;;;5091276;28;19935;-66
2022/10/24 08:09:04;;;;;;;;;;;;;;;;;;5065621;28;19946;-66
2022/10/24 08:11:31;;;;;;;;;;;;;;;;;;5066734;28;20319;-66
2022/10/24 08:13:56;;;;;;;;;;;;;;;;;;5101507;27;19920;-66
2022/10/24 08:16:21;;;;;;;;;;;;;;;;;;5061800;28;19920;-66
2022/10/24 08:18:46;;;;;;;;;;;;;;;;;;5101820;28;19931;-66
2022/10/24 08:21:12;;;;;;;;;;;;;;;;;;5067735;28;19986;-65
2022/10/24 08:23:37;;;;;;;;;;;;;;;;;;5071384;28;20292;-67
2022/10/24 08:26:02;;;;;;;;;;;;;;;;;;5104935;28;19920;-65
2022/10/24 08:28:27;;;;;;;;;;;;;;;;;;5099691;28;19919;-66
2022/10/24 08:30:52;;;;;;;;;;;;;;;;;;5063194;28;19927;-65
2022/10/24 08:33:17;;;;;;;;;;;;;;;;;;5068438;28;19961;-66
2022/10/24 08:35:42;;;;;;;;;;;;;;;;;;5071161;28;20384;-66
2022/10/24 08:38:07;;;;;;;;;;;;;;;;;;5066216;28;19970;-66
2022/10/24 08:40:33;;;;;;;;;;;;;;;;;;5063784;28;19966;-66
2022/10/24 08:42:58;;;;;;;;;;;;;;;;;;5069108;28;19920;-65
2022/10/24 08:45:23;;;;;;;;;;;;;;;;;;5103509;28;19970;-67
2022/10/24 08:47:48;;;;;;;;;;;;;;;;;;5068768;28;19913;-65
2022/10/24 08:50:13;;;;;;;;;;;;;;;;;;5066363;28;19916;-65
2022/10/24 08:52:38;;;;;;;;;;;;;;;;;;5064313;28;20747;-66
2022/10/24 08:55:05;;;;;;;;;;;;;;;;;;5072160;28;20254;-65
2022/10/24 08:57:30;;;;;;;;;;;;;;;;;;5069048;28;19920;-66
2022/10/24 08:59:55;;;;;;;;;;;;;;;;;;5096458;28;20288;-66
2022/10/24 09:02:20;;;;;;;;;;;;;;;;;;5067517;28;19928;-65
2022/10/24 09:04:46;;;;;;;;;;;;;;;;;;5070818;28;19967;-66
2022/10/24 09:07:11;;;;;;;;;;;;;;;;;;5094889;28;20495;-66
2022/10/24 09:09:36;;;;;;;;;;;;;;;;;;5065311;28;20417;-66
2022/10/24 09:12:01;;;;;;;;;;;;;;;;;;5069667;28;19948;-66
2022/10/24 09:14:26;;;;;;;;;;;;;;;;;;5070807;28;19919;-65
2022/10/24 09:16:51;;;;;;;;;;;;;;;;;;5070842;28;19912;-65
2022/10/24 09:19:16;;;;;;;;;;;;;;;;;;5070694;28;20289;-66
2022/10/24 09:21:42;;;;;;;;;;;;;;;;;;5095019;28;20384;-65
2022/10/24 09:24:07;;;;;;;;;;;;;;;;;;5062728;28;19912;-65
2022/10/24 09:26:32;;;;;;;;;;;;;;;;;;5059569;28;19913;-66
2022/10/24 09:28:57;;;;;;;;;;;;;;;;;;5065003;28;19917;-66
2022/10/24 09:31:23;;;;;;;;;;;;;;;;;;5068586;28;19912;-66
2022/10/24 09:33:48;;;;;;;;;;;;;;;;;;5069291;28;20071;-66
2022/10/24 09:36:13;;;;;;;;;;;;;;;;;;5071512;28;20011;-66
2022/10/24 09:38:39;;;;;;;;;;;;;;;;;;5058432;28;20188;-65
2022/10/24 09:41:04;;;;;;;;;;;;;;;;;;5064071;28;19917;-66
2022/10/24 09:43:29;;;;;;;;;;;;;;;;;;5070224;28;19912;-66
2022/10/24 09:45:54;;;;;;;;;;;;;;;;;;5069112;28;20018;-66
2022/10/24 09:48:19;;;;;;;;;;;;;;;;;;5068138;28;19920;-65
2022/10/24 09:50:44;;;;;;;;;;;;;;;;;;5095839;28;19916;-66
2022/10/24 09:53:10;;;;;;;;;;;;;;;;;;5095772;28;19964;-66
2022/10/24 09:55:35;;;;;;;;;;;;;;;;;;5061471;28;19917;-66
2022/10/24 09:58:04;;;;;;;;;;;;;;;;;;5061560;28;19923;-66
2022/10/24 10:00:29;;;;;;;;;;;;;;;;;;5059961;28;20380;-66
2022/10/24 10:02:54;;;;;;;;;;;;;;;;;;5060443;28;19923;-65
2022/10/24 10:05:19;;;;;;;;;;;;;;;;;;5091511;28;19924;-65
2022/10/24 10:07:47;;;;;;;;;;;;;;;;;;5062222;28;19917;-66
2022/10/24 10:10:12;;;;;;;;;;;;;;;;;;5068689;28;19920;-66
2022/10/24 10:12:37;;;;;;;;;;;;;;;;;;5060913;28;19973;-66
2022/10/24 10:15:02;;;;;;;;;;;;;;;;;;5063419;28;20352;-66
2022/10/24 10:17:29;;;;;;;;;;;;;;;;;;5059878;28;20374;-65
2022/10/24 10:19:54;;;;;;;;;;;;;;;;;;5057339;28;20085;-65
2022/10/24 10:22:20;;;;;;;;;;;;;;;;;;5057276;28;19983;-65
2022/10/24 10:24:45;;;;;;;;;;;;;;;;;;5059539;28;19924;-65
2022/10/24 10:27:10;;;;;;;;;;;;;;;;;;5061164;28;19921;-65
2022/10/24 10:29:35;;;;;;;;;;;;;;;;;;5059764;28;19924;-66
2022/10/24 10:32:00;;;;;;;;;;;;;;;;;;5056981;28;19920;-65
2022/10/24 10:34:25;;;;;;;;;;;;;;;;;;5061217;28;19919;-66
2022/10/24 10:36:51;;;;;;;;;;;;;;;;;;5060989;28;19925;-64
2022/10/24 10:39:16;;;;;;;;;;;;;;;;;;5056843;28;20002;-66
2022/10/24 10:41:41;;;;;;;;;;;;;;;;;;5059761;28;20335;-65
2022/10/24 10:44:06;;;;;;;;;;;;;;;;;;5064344;28;20368;-66
2022/10/24 10:46:31;;;;;;;;;;;;;;;;;;5100412;28;19913;-65
2022/10/24 10:48:57;;;;;;;;;;;;;;;;;;5064483;28;20490;-66
2022/10/24 10:51:22;;;;;;;;;;;;;;;;;;5094733;28;19920;-66
2022/10/24 10:53:47;;;;;;;;;;;;;;;;;;5068052;28;20001;-66
2022/10/24 10:56:12;;;;;;;;;;;;;;;;;;5070004;28;19978;-65
2022/10/24 10:58:37;;;;;;;;;;;;;;;;;;5068640;28;19930;-66
2022/10/24 11:01:02;;;;;;;;;;;;;;;;;;5100491;28;19920;-66
2022/10/24 11:03:27;;;;;;;;;;;;;;;;;;5100627;28;19912;-67
2022/10/24 11:05:53;;;;;;;;;;;;;;;;;;5064769;28;19919;-66
2022/10/24 11:08:18;;;;;;;;;;;;;;;;;;5069770;28;19912;-66
2022/10/24 11:10:43;;;;;;;;;;;;;;;;;;5067998;28;19996;-65
2022/10/24 11:13:08;;;;;;;;;;;;;;;;;;5068138;28;19912;-66
2022/10/24 11:15:33;;;;;;;;;;;;;;;;;;5064265;28;19917;-66
2022/10/24 11:17:58;;;;;;;;;;;;;;;;;;5067466;28;19913;-66
2022/10/24 11:20:23;;;;;;;;;;;;;;;;;;5063149;28;20449;-65
2022/10/24 11:22:48;;;;;;;;;;;;;;;;;;5065569;28;19921;-65
2022/10/24 11:25:14;;;;;;;;;;;;;;;;;;5069489;28;19917;-65
2022/10/24 11:27:39;;;;;;;;;;;;;;;;;;5104399;28;19913;-66
2022/10/24 11:30:04;;;;;;;;;;;;;;;;;;5071793;28;19916;-65
2022/10/24 11:32:29;;;;;;;;;;;;;;;;;;5072787;28;19960;-65
2022/10/24 11:34:54;;;;;;;;;;;;;;;;;;5072411;28;20281;-65
2022/10/24 11:37:19;;;;;;;;;;;;;;;;;;5062029;28;20398;-65
2022/10/24 11:39:44;;;;;;;;;;;;;;;;;;5069165;28;20441;-66
2022/10/24 11:42:10;;;;;;;;;;;;;;;;;;5066638;28;19920;-65
2022/10/24 11:44:35;;;;;;;;;;;;;;;;;;5065299;28;20010;-66
2022/10/24 11:47:00;;;;;;;;;;;;;;;;;;5072615;28;20419;-66
2022/10/24 11:49:25;;;;;;;;;;;;;;;;;;5099234;28;20361;-65
2022/10/24 11:51:50;;;;;;;;;;;;;;;;;;5100184;28;19918;-66
2022/10/24 11:54:15;;;;;;;;;;;;;;;;;;5070152;28;19971;-66
2022/10/24 11:56:41;;;;;;;;;;;;;;;;;;5068595;28;19916;-65
2022/10/24 11:59:06;;;;;;;;;;;;;;;;;;5073401;28;20285;-65
2022/10/24 12:01:32;;;;;;;;;;;;;;;;;;5071217;28;19908;-65
2022/10/24 12:03:57;;;;;;;;;;;;;;;;;;5073820;28;19919;-65
2022/10/24 12:06:22;;;;;;;;;;;;;;;;;;5064726;28;19909;-66
2022/10/24 12:08:47;;;;;;;;;;;;;;;;;;5103368;28;20412;-66
2022/10/24 12:11:12;;;;;;;;;;;;;;;;;;5070213;28;19944;-66
2022/10/24 12:13:37;;;;;;;;;;;;;;;;;;5074083;28;19916;-66
2022/10/24 12:16:02;;;;;;;;;;;;;;;;;;5071108;28;19959;-66
2022/10/24 12:18:27;;;;;;;;;;;;;;;;;;5069591;28;19913;-66
2022/10/24 12:20:53;;;;;;;;;;;;;;;;;;5064511;28;20380;-66
2022/10/24 12:23:18;;;;;;;;;;;;;;;;;;5072359;28;20424;-66
2022/10/24 12:25:43;;;;;;;;;;;;;;;;;;5072331;28;19958;-66
2022/10/24 12:28:11;;;;;;;;;;;;;;;;;;5070351;28;19909;-66
2022/10/24 12:30:36;;;;;;;;;;;;;;;;;;5071109;28;19958;-66
2022/10/24 12:33:01;;;;;;;;;;;;;;;;;;5065917;28;20365;-66
2022/10/24 12:35:26;;;;;;;;;;;;;;;;;;5070421;28;19920;-65
2022/10/24 12:37:51;;;;;;;;;;;;;;;;;;5104061;28;19916;-65
2022/10/24 12:40:16;;;;;;;;;;;;;;;;;;5104995;28;20605;-66
2022/10/24 12:42:41;;;;;;;;;;;;;;;;;;5071343;28;21162;-66
2022/10/24 12:45:07;;;;;;;;;;;;;;;;;;5071618;28;19912;-64
2022/10/24 12:47:32;;;;;;;;;;;;;;;;;;5068648;28;20627;-66
2022/10/24 12:49:57;;;;;;;;;;;;;;;;;;5071100;28;19912;-66
2022/10/24 12:52:22;;;;;;;;;;;;;;;;;;5069717;28;19913;-67
2022/10/24 12:54:47;;;;;;;;;;;;;;;;;;5070094;28;19923;-65
2022/10/24 12:57:12;;;;;;;;;;;;;;;;;;5070977;28;20416;-65
2022/10/24 12:59:38;;;;;;;;;;;;;;;;;;5068929;28;20021;-66
2022/10/24 13:02:03;;;;;;;;;;;;;;;;;;5068092;28;19935;-66
2022/10/24 13:04:28;;;;;;;;;;;;;;;;;;5071194;28;20014;-66
2022/10/24 13:06:53;;;;;;;;;;;;;;;;;;5071820;28;20300;-66
2022/10/24 13:09:18;;;;;;;;;;;;;;;;;;5071875;28;19916;-77
2022/10/24 13:11:43;;;;;;;;;;;;;;;;;;5071328;28;19993;-78
2022/10/24 13:14:09;;;;;;;;;;;;;;;;;;5068939;28;19920;-77
2022/10/24 13:16:34;;;;;;;;;;;;;;;;;;5071562;28;19913;-77
2022/10/24 13:18:59;;;;;;;;;;;;;;;;;;5066264;28;19916;-78
2022/10/24 13:21:24;;;;;;;;;;;;;;;;;;5097836;27;19964;-77
2022/10/24 13:23:49;;;;;;;;;;;;;;;;;;5069629;28;19943;-77
2022/10/24 13:26:14;;;;;;;;;;;;;;;;;;5071213;28;19912;-76
2022/10/24 13:28:40;;;;;;;;;;;;;;;;;;5105419;28;19917;-77
2022/10/24 13:31:05;;;;;;;;;;;;;;;;;;5067138;28;20070;-77
2022/10/24 13:33:31;;;;;;;;;;;;;;;;;;5068811;28;19909;-77
2022/10/24 13:35:56;;;;;;;;;;;;;;;;;;5067972;28;20277;-73
2022/10/24 13:38:21;;;;;;;;;;;;;;;;;;5067392;28;19916;-77
2022/10/24 13:40:46;;;;;;;;;;;;;;;;;;5067620;28;19917;-73
2022/10/24 13:43:11;;;;;;;;;;;;;;;;;;5103288;28;19917;-77
2022/10/24 13:45:36;;;;;;;;;;;;;;;;;;5071122;28;19916;-75
2022/10/24 13:48:01;;;;;;;;;;;;;;;;;;5067502;28;19917;-76
2022/10/24 13:50:27;;;;;;;;;;;;;;;;;;5090793;28;19951;-77
2022/10/24 13:52:53;;;;;;;;;;;;;;;;;;5094380;28;19913;-80
2022/10/24 13:55:18;;;;;;;;;;;;;;;;;;5068921;28;19913;-77
2022/10/24 13:57:44;;;;;;;;;;;;;;;;;;5071515;28;19947;-77
2022/10/24 14:00:09;;;;;;;;;;;;;;;;;;5063550;28;19989;-77
2022/10/24 14:02:34;;;;;;;;;;;;;;;;;;5066198;28;20398;-77
2022/10/24 14:04:59;;;;;;;;;;;;;;;;;;5070918;28;19916;-78
2022/10/24 14:07:24;;;;;;;;;;;;;;;;;;5068464;28;19944;-76
2022/10/24 14:09:49;;;;;;;;;;;;;;;;;;5101118;28;19920;-76
2022/10/24 14:12:14;;;;;;;;;;;;;;;;;;5070023;28;19916;-77
2022/10/24 14:14:40;;;;;;;;;;;;;;;;;;5069457;28;20011;-75
2022/10/24 14:17:05;;;;;;;;;;;;;;;;;;5068602;28;20026;-77
2022/10/24 14:19:32;;;;;;;;;;;;;;;;;;5071222;28;19963;-78
2022/10/24 14:21:57;;;;;;;;;;;;;;;;;;5090978;28;19935;-76
2022/10/24 14:24:22;;;;;;;;;;;;;;;;;;5066810;28;19913;-79
2022/10/24 14:26:47;;;;;;;;;;;;;;;;;;5071117;28;19912;-77
2022/10/24 14:29:13;;;;;;;;;;;;;;;;;;5062628;28;19927;-76
2022/10/24 14:31:38;;;;;;;;;;;;;;;;;;5066412;28;20348;-75
2022/10/24 14:34:04;;;;;;;;;;;;;;;;;;5065020;28;19913;-75
2022/10/24 14:36:29;;;;;;;;;;;;;;;;;;5069464;28;19916;-74
2022/10/24 14:38:56;;;;;;;;;;;;;;;;;;5062170;28;20385;-74
2022/10/24 14:41:21;;;;;;;;;;;;;;;;;;5065468;28;20258;-75
2022/10/24 14:43:46;;;;;;;;;;;;;;;;;;5095307;28;19927;-73
2022/10/24 14:46:11;;;;;;;;;;;;;;;;;;5068639;28;19928;-74
2022/10/24 14:48:36;;;;;;;;;;;;;;;;;;5066575;28;20383;-74
2022/10/24 14:51:02;;;;;;;;;;;;;;;;;;5062018;28;20429;-73
2022/10/24 14:53:27;;;;;;;;;;;;;;;;;;5069265;28;19912;-73
2022/10/24 14:55:52;;;;;;;;;;;;;;;;;;5065485;28;19920;-73
2022/10/24 14:58:18;;;;;;;;;;;;;;;;;;5068566;28;19955;-73
2022/10/24 15:00:43;;;;;;;;;;;;;;;;;;5068941;28;19912;-75
2022/10/24 15:03:08;;;;;;;;;;;;;;;;;;5069731;28;19915;-73
2022/10/24 15:05:33;;;;;;;;;;;;;;;;;;5062903;28;19912;-73
2022/10/24 15:07:59;;;;;;;;;;;;;;;;;;5067197;28;20346;-74
2022/10/24 15:10:26;;;;;;;;;;;;;;;;;;5068384;28;20052;-75
2022/10/24 15:12:52;;;;;;;;;;;;;;;;;;5066314;28;19912;-75
2022/10/24 15:15:17;;;;;;;;;;;;;;;;;;5068097;28;19950;-73
2022/10/24 15:17:42;;;;;;;;;;;;;;;;;;5067952;28;19920;-75
2022/10/24 15:20:07;;;;;;;;;;;;;;;;;;5067577;28;19974;-75
2022/10/24 15:22:32;;;;;;;;;;;;;;;;;;5063615;28;19928;-73
2022/10/24 15:24:57;;;;;;;;;;;;;;;;;;5068115;28;19919;-74
2022/10/24 15:27:22;;;;;;;;;;;;;;;;;;5065928;28;19912;-76
2022/10/24 15:29:48;;;;;;;;;;;;;;;;;;5069199;28;19916;-73
2022/10/24 15:32:13;;;;;;;;;;;;;;;;;;5069006;28;19912;-74
2022/10/24 15:34:41;;;;;;;;;;;;;;;;;;5070477;28;19981;-75
2022/10/24 15:37:07;;;;;;;;;;;;;;;;;;5098233;28;19963;-74
2022/10/24 15:39:32;;;;;;;;;;;;;;;;;;5069258;28;19952;-75
2022/10/24 15:41:58;;;;;;;;;;;;;;;;;;5068415;28;20005;-73
2022/10/24 15:44:24;;;;;;;;;;;;;;;;;;5065553;28;19912;-74
2022/10/24 15:46:49;;;;;;;;;;;;;;;;;;5091731;28;19921;-74
2022/10/24 15:49:14;;;;;;;;;;;;;;;;;;5070794;28;19919;-74
2022/10/24 15:51:39;;;;;;;;;;;;;;;;;;5058978;28;20007;-73
2022/10/24 15:54:05;;;;;;;;;;;;;;;;;;5065732;28;19923;-77
2022/10/24 15:56:30;;;;;;;;;;;;;;;;;;5100738;28;19912;-74
2022/10/24 15:58:55;;;;;;;;;;;;;;;;;;5065475;28;20037;-71
2022/10/24 16:01:20;;;;;;;;;;;;;;;;;;5083689;28;19920;-74
2022/10/24 16:03:45;;;;;;;;;;;;;;;;;;5066308;28;19947;-73
2022/10/24 16:06:11;;;;;;;;;;;;;;;;;;5063343;28;20003;-74
2022/10/24 16:08:36;;;;;;;;;;;;;;;;;;5067487;28;19997;-73
2022/10/24 16:11:01;;;;;;;;;;;;;;;;;;5073770;28;19912;-75
2022/10/24 16:13:26;;;;;;;;;;;;;;;;;;5069246;28;19912;-73
2022/10/24 16:15:52;;;;;;;;;;;;;;;;;;5100119;28;19940;-73
2022/10/24 16:18:17;;;;;;;;;;;;;;;;;;5068582;28;19958;-75
2022/10/24 16:20:42;;;;;;;;;;;;;;;;;;5096037;28;20376;-75
2022/10/24 16:23:07;;;;;;;;;;;;;;;;;;5071849;28;19932;-74
2022/10/24 16:25:32;;;;;;;;;;;;;;;;;;5070377;28;19935;-72
2022/10/24 16:27:57;;;;;;;;;;;;;;;;;;5100627;28;19913;-74
2022/10/24 16:30:22;;;;;;;;;;;;;;;;;;5105081;28;19916;-75